createdAt,value
2022-12-14T00:01:49.725Z,13.07
2022-12-14T00:04:18.901Z,13.10
2022-12-14T00:06:47.429Z,12.97
2022-12-14T00:09:16.345Z,12.87
2022-12-14T00:11:44.155Z,12.73
2022-12-14T00:14:11.888Z,13.53
2022-12-14T00:16:39.586Z,12.23
2022-12-14T00:19:07.422Z,12.97
2022-12-14T00:21:36.493Z,12.60
2022-12-14T00:24:04.769Z,11.90
2022-12-14T00:26:33.796Z,11.80
2022-12-14T00:29:02.947Z,12.43
2022-12-14T00:31:32.378Z,12.67
2022-12-14T00:34:01.244Z,12.20
2022-12-14T00:36:31.484Z,12.20
2022-12-14T00:39:01.062Z,11.97
2022-12-14T00:41:29.146Z,12.43
2022-12-14T00:43:56.972Z,12.00
2022-12-14T00:46:24.714Z,11.90
2022-12-14T00:48:52.445Z,11.93
2022-12-14T00:51:20.417Z,12.50
2022-12-14T00:53:48.137Z,11.37
2022-12-14T00:56:17.398Z,11.50
2022-12-14T00:58:45.087Z,11.47
2022-12-14T01:01:14.362Z,11.80
2022-12-14T01:03:42.984Z,12.07
2022-12-14T01:06:15.094Z,11.57
2022-12-14T01:08:42.831Z,11.50
2022-12-14T01:11:11.357Z,11.50
2022-12-14T01:13:42.206Z,11.90
2022-12-14T01:16:11.469Z,12.13
2022-12-14T01:18:40.706Z,12.27
2022-12-14T01:21:13.825Z,10.87
2022-12-14T01:23:42.162Z,12.27
2022-12-14T01:26:10.306Z,11.97
2022-12-14T01:28:38.146Z,11.53
2022-12-14T01:31:09.553Z,11.53
2022-12-14T01:33:37.612Z,11.57
2022-12-14T01:36:07.147Z,10.97
2022-12-14T01:38:34.921Z,10.80
2022-12-14T01:41:02.985Z,10.70
2022-12-14T01:43:49.363Z,10.23
2022-12-14T01:46:25.094Z,10.77
2022-12-14T01:48:55.840Z,9.90
2022-12-14T01:51:25.466Z,10.60
2022-12-14T01:53:54.111Z,10.50
2022-12-14T01:56:22.009Z,9.83
2022-12-14T01:58:50.559Z,11.43
2022-12-14T02:01:19.735Z,11.03
2022-12-14T02:03:51.315Z,10.63
2022-12-14T02:06:22.706Z,10.87
2022-12-14T02:08:53.538Z,10.17
2022-12-14T02:11:30.366Z,9.93
2022-12-14T02:13:58.018Z,9.87
2022-12-14T02:16:27.682Z,10.00
2022-12-14T02:18:55.450Z,11.20
2022-12-14T02:21:26.005Z,9.70
2022-12-14T02:24:19.446Z,9.80
2022-12-14T02:27:00.809Z,9.70
2022-12-14T02:29:48.948Z,10.93
2022-12-14T02:32:28.943Z,11.27
2022-12-14T02:35:02.446Z,10.30
2022-12-14T02:37:39.337Z,9.83
2022-12-14T02:40:21.309Z,9.87
2022-12-14T02:43:02.835Z,10.00
2022-12-14T02:45:38.093Z,9.57
2022-12-14T02:48:10.749Z,9.77
2022-12-14T02:50:45.038Z,10.37
2022-12-14T02:53:21.741Z,10.17
2022-12-14T02:55:52.510Z,10.00
2022-12-14T02:58:26.176Z,9.67
2022-12-14T03:00:57.420Z,10.30
2022-12-14T03:03:26.132Z,10.20
2022-12-14T03:05:58.690Z,10.27
2022-12-14T03:08:28.886Z,10.13
2022-12-14T03:11:00.996Z,9.77
2022-12-14T03:13:31.922Z,9.83
2022-12-14T03:16:06.242Z,10.23
2022-12-14T03:18:38.469Z,9.80
2022-12-14T03:21:11.629Z,9.40
2022-12-14T03:23:42.322Z,9.47
2022-12-14T03:26:17.177Z,10.50
2022-12-14T03:28:50.852Z,9.50
2022-12-14T03:31:26.155Z,9.73
2022-12-14T03:33:57.963Z,9.23
2022-12-14T03:36:31.581Z,9.63
2022-12-14T03:39:04.214Z,10.67
2022-12-14T03:41:39.053Z,9.60
2022-12-14T03:44:23.754Z,10.33
2022-12-14T03:46:58.838Z,10.20
2022-12-14T03:49:43.730Z,10.80
2022-12-14T03:52:22.226Z,10.73
2022-12-14T03:54:57.134Z,10.00
2022-12-14T03:57:47.541Z,10.17
2022-12-14T04:00:19.791Z,10.67
2022-12-14T04:02:54.328Z,11.03
2022-12-14T04:05:30.888Z,10.70
2022-12-14T04:08:05.572Z,11.07
2022-12-14T04:10:57.274Z,11.67
2022-12-14T04:13:49.166Z,11.27
2022-12-14T04:16:54.299Z,11.00
2022-12-14T04:19:32.873Z,11.30
2022-12-14T04:22:05.458Z,11.60
2022-12-14T04:24:56.043Z,11.50
2022-12-14T04:27:31.041Z,10.97
2022-12-14T04:30:01.529Z,9.90
2022-12-14T04:32:34.720Z,11.23
2022-12-14T04:35:10.351Z,10.53
2022-12-14T04:37:41.434Z,11.00
2022-12-14T04:40:12.459Z,11.37
2022-12-14T04:42:46.733Z,10.73
2022-12-14T04:45:19.803Z,11.30
2022-12-14T04:47:56.647Z,10.93
2022-12-14T04:50:29.085Z,11.60
2022-12-14T04:53:03.572Z,11.93
2022-12-14T04:55:36.963Z,11.07
2022-12-14T04:58:11.464Z,12.30
2022-12-14T05:00:49.133Z,11.87
2022-12-14T05:03:26.699Z,11.13
2022-12-14T05:06:07.216Z,11.40
2022-12-14T05:08:54.183Z,11.37
2022-12-14T05:14:20.688Z,11.57
2022-12-14T05:16:49.508Z,13.30
2022-12-14T05:19:17.580Z,12.43
2022-12-14T05:21:49.685Z,11.33
2022-12-14T05:24:18.548Z,12.00
2022-12-14T05:26:46.251Z,12.23
2022-12-14T05:29:14.935Z,12.30
2022-12-14T05:31:42.647Z,12.87
2022-12-14T05:34:17.035Z,12.77
2022-12-14T05:36:46.094Z,13.97
2022-12-14T05:39:14.200Z,13.03
2022-12-14T05:41:41.934Z,12.57
2022-12-14T05:44:10.161Z,13.37
2022-12-14T05:46:37.985Z,12.30
2022-12-14T05:49:05.637Z,12.50
2022-12-14T05:51:33.275Z,13.73
2022-12-14T05:54:02.298Z,13.17
2022-12-14T05:56:30.010Z,12.87
2022-12-14T05:58:58.036Z,13.47
2022-12-14T06:01:25.910Z,13.23
2022-12-14T06:03:54.133Z,13.50
2022-12-14T06:06:22.390Z,12.60
2022-12-14T06:08:50.398Z,14.23
2022-12-14T06:11:21.601Z,14.63
2022-12-14T06:13:50.252Z,15.70
2022-12-14T06:16:20.343Z,15.67
2022-12-14T06:18:50.049Z,16.57
2022-12-14T06:21:19.742Z,15.13
2022-12-14T06:23:47.802Z,15.80
2022-12-14T06:26:17.038Z,15.80
2022-12-14T06:28:46.185Z,15.60
2022-12-14T06:31:17.666Z,16.13
2022-12-14T06:33:45.462Z,16.47
2022-12-14T06:36:19.745Z,16.97
2022-12-14T06:38:47.933Z,16.47
2022-12-14T06:41:15.886Z,17.63
2022-12-14T06:43:43.648Z,15.87
2022-12-14T06:46:16.018Z,16.73
2022-12-14T06:48:44.489Z,16.33
2022-12-14T06:51:12.471Z,16.37
2022-12-14T06:53:40.578Z,16.73
2022-12-14T06:56:10.854Z,14.97
2022-12-14T06:58:38.992Z,15.77
2022-12-14T07:01:08.487Z,15.43
2022-12-14T07:03:38.588Z,17.23
2022-12-14T07:06:07.841Z,16.60
2022-12-14T07:08:37.428Z,17.00
2022-12-14T07:11:06.692Z,17.33
2022-12-14T07:13:34.801Z,17.13
2022-12-14T07:16:03.133Z,19.07
2022-12-14T07:18:31.055Z,19.23
2022-12-14T07:21:02.331Z,19.73
2022-12-14T07:23:33.190Z,20.20
2022-12-14T07:26:06.245Z,20.27
2022-12-14T07:28:35.588Z,19.83
2022-12-14T07:31:04.726Z,19.87
2022-12-14T07:33:32.707Z,19.30
2022-12-14T07:36:06.350Z,18.83
2022-12-14T07:38:35.355Z,19.73
2022-12-14T07:41:05.384Z,20.60
2022-12-14T07:43:33.227Z,18.33
2022-12-14T07:46:02.792Z,18.43
2022-12-14T07:48:31.081Z,17.60
2022-12-14T07:51:03.624Z,18.43
2022-12-14T07:53:33.198Z,18.67
2022-12-14T07:56:04.842Z,18.47
2022-12-14T07:58:33.190Z,19.30
2022-12-14T08:01:12.880Z,18.30
2022-12-14T08:03:41.441Z,17.80
2022-12-14T08:06:11.601Z,17.53
2022-12-14T08:08:41.113Z,17.70
2022-12-14T08:11:09.491Z,17.43
2022-12-14T08:13:39.101Z,16.73
2022-12-14T08:16:09.520Z,17.23
2022-12-14T08:18:37.648Z,18.33
2022-12-14T08:21:06.964Z,18.57
2022-12-14T08:23:35.143Z,18.50
2022-12-14T08:26:05.995Z,18.57
2022-12-14T08:28:34.904Z,18.07
2022-12-14T08:31:05.562Z,19.43
2022-12-14T08:33:34.621Z,19.47
2022-12-14T08:36:07.352Z,18.93
2022-12-14T08:38:35.139Z,19.60
2022-12-14T08:41:05.045Z,17.67
2022-12-14T08:43:33.477Z,18.47
2022-12-14T08:46:01.579Z,18.50
2022-12-14T08:48:29.874Z,20.10
2022-12-14T08:51:02.276Z,20.47
2022-12-14T08:53:30.256Z,20.23
2022-12-14T08:55:58.654Z,21.73
2022-12-14T08:58:27.682Z,21.40
2022-12-14T09:01:03.361Z,20.00
2022-12-14T09:03:31.691Z,20.37
2022-12-14T09:06:04.292Z,19.67
2022-12-14T09:08:32.448Z,21.60
2022-12-14T09:11:00.575Z,21.13
2022-12-14T09:13:30.832Z,21.50
2022-12-14T09:16:00.357Z,20.77
2022-12-14T09:18:29.323Z,21.80
2022-12-14T09:20:57.488Z,21.50
2022-12-14T09:23:27.206Z,21.50
2022-12-14T09:26:05.547Z,21.47
2022-12-14T09:28:36.777Z,21.20
2022-12-14T09:31:06.869Z,21.83
2022-12-14T09:33:35.172Z,20.93
2022-12-14T09:36:03.665Z,21.40
2022-12-14T09:38:33.182Z,23.23
2022-12-14T09:41:07.266Z,24.37
2022-12-14T09:43:41.355Z,23.30
2022-12-14T09:46:22.367Z,22.63
2022-12-14T09:48:52.227Z,23.20
2022-12-14T09:51:22.299Z,22.57
2022-12-14T09:54:00.703Z,21.70
2022-12-14T09:56:29.948Z,22.93
2022-12-14T09:59:02.816Z,21.60
2022-12-14T10:02:28.996Z,23.20
2022-12-14T10:04:54.058Z,20.43
2022-12-14T10:07:27.194Z,20.97
2022-12-14T10:10:02.580Z,22.87
2022-12-14T10:12:43.079Z,22.33
2022-12-14T10:15:25.590Z,21.93
2022-12-14T10:18:57.104Z,21.87
2022-12-14T10:21:14.880Z,22.03
2022-12-14T10:23:53.453Z,21.97
2022-12-14T10:26:24.702Z,21.87
2022-12-14T10:29:01.187Z,21.20
2022-12-14T10:31:40.579Z,22.87
2022-12-14T10:34:18.964Z,23.17
2022-12-14T10:36:54.659Z,22.43
2022-12-14T10:39:35.604Z,22.53
2022-12-14T10:42:13.048Z,21.40
2022-12-14T10:44:59.748Z,21.43
2022-12-14T10:47:43.681Z,21.83
2022-12-14T10:50:19.557Z,23.20
2022-12-14T10:52:51.013Z,23.57
2022-12-14T10:55:22.169Z,23.37
2022-12-14T10:57:50.266Z,22.90
2022-12-14T11:00:23.401Z,22.33
2022-12-14T11:02:55.912Z,21.43
2022-12-14T11:05:36.692Z,21.13
2022-12-14T11:08:06.851Z,20.93
2022-12-14T11:10:36.071Z,20.40
2022-12-14T11:13:08.113Z,20.27
2022-12-14T11:15:38.734Z,21.13
2022-12-14T11:18:24.924Z,19.87
2022-12-14T11:20:54.776Z,21.40
2022-12-14T11:23:26.341Z,20.67
2022-12-14T11:25:56.710Z,20.23
2022-12-14T11:28:36.445Z,20.80
2022-12-14T11:31:07.768Z,20.83
2022-12-14T11:33:40.145Z,19.33
2022-12-14T11:36:09.423Z,20.17
2022-12-14T11:38:37.982Z,20.40
2022-12-14T11:41:11.381Z,19.60
2022-12-14T11:43:40.535Z,18.97
2022-12-14T11:46:08.614Z,19.80
2022-12-14T11:48:39.335Z,20.37
2022-12-14T11:51:11.803Z,20.00
2022-12-14T11:53:39.811Z,21.10
2022-12-14T11:56:14.257Z,20.63
2022-12-14T11:58:49.286Z,21.07
2022-12-14T12:01:20.986Z,20.10
2022-12-14T12:03:52.771Z,21.17
2022-12-14T12:06:23.734Z,20.93
2022-12-14T12:08:57.090Z,18.53
2022-12-14T12:11:28.543Z,19.60
2022-12-14T12:14:00.640Z,19.70
2022-12-14T12:16:32.726Z,20.07
2022-12-14T12:19:12.082Z,21.23
2022-12-14T12:21:43.042Z,20.63
2022-12-14T12:24:18.328Z,19.73
2022-12-14T12:26:51.117Z,19.83
2022-12-14T12:29:25.546Z,19.20
2022-12-14T12:31:58.648Z,19.93
2022-12-14T12:34:32.526Z,18.83
2022-12-14T12:39:57.859Z,18.50
2022-12-14T12:42:35.851Z,20.33
2022-12-14T12:45:10.493Z,21.37
2022-12-14T12:47:47.609Z,20.63
2022-12-14T12:50:21.602Z,19.17
2022-12-14T12:53:02.772Z,20.20
2022-12-14T12:55:35.807Z,21.27
2022-12-14T12:58:09.402Z,20.03
2022-12-14T13:00:39.093Z,19.43
2022-12-14T13:03:11.453Z,18.40
2022-12-14T13:05:46.721Z,18.63
2022-12-14T13:08:23.154Z,18.83
2022-12-14T13:13:45.153Z,17.93
2022-12-14T13:16:19.417Z,18.13
2022-12-14T13:19:18.622Z,18.70
2022-12-14T13:21:49.791Z,17.57
2022-12-14T13:24:20.003Z,16.43
2022-12-14T13:27:17.663Z,18.33
2022-12-14T13:30:05.885Z,17.17
2022-12-14T13:32:51.259Z,16.70
2022-12-14T13:35:37.307Z,16.03
2022-12-14T13:38:33.552Z,16.83
2022-12-14T13:41:33.877Z,16.43
2022-12-14T13:44:17.002Z,16.93
2022-12-14T13:46:44.934Z,16.60
2022-12-14T13:49:21.877Z,16.23
2022-12-14T13:51:51.675Z,17.83
2022-12-14T13:54:27.612Z,16.37
2022-12-14T13:57:05.545Z,17.27
2022-12-14T13:59:36.877Z,16.87
2022-12-14T14:02:28.032Z,16.90
2022-12-14T14:05:46.897Z,17.27
2022-12-14T14:08:39.365Z,16.97
2022-12-14T14:11:47.111Z,16.17
2022-12-14T14:14:33.144Z,18.63
2022-12-14T14:17:08.103Z,20.43
2022-12-14T14:19:40.506Z,20.13
2022-12-14T14:22:24.236Z,19.33
2022-12-14T14:24:58.256Z,20.40
2022-12-14T14:27:29.752Z,20.93
2022-12-14T14:29:58.773Z,18.53
2022-12-14T14:32:33.953Z,19.77
2022-12-14T14:35:03.773Z,16.90
2022-12-14T14:37:38.527Z,17.57
2022-12-14T14:40:33.515Z,17.03
2022-12-14T14:43:24.284Z,19.17
2022-12-14T14:45:55.936Z,17.83
2022-12-14T14:48:33.777Z,17.83
2022-12-14T14:51:09.789Z,17.97
2022-12-14T14:53:39.849Z,15.90
2022-12-14T14:56:14.171Z,17.70
2022-12-14T14:58:43.518Z,17.47
2022-12-14T15:01:21.720Z,17.73
2022-12-14T15:03:58.253Z,17.17
2022-12-14T15:06:29.371Z,16.43
2022-12-14T15:09:03.477Z,16.90
2022-12-14T15:11:43.368Z,16.77
2022-12-14T15:14:23.269Z,16.33
2022-12-14T15:16:51.164Z,16.13
2022-12-14T15:19:27.773Z,17.40
2022-12-14T15:21:58.465Z,16.73
2022-12-14T15:24:28.187Z,17.47
2022-12-14T15:26:55.959Z,17.57
2022-12-14T15:29:27.919Z,16.83
2022-12-14T15:32:00.132Z,16.70
2022-12-14T15:34:28.338Z,17.33
2022-12-14T15:36:57.496Z,17.67
2022-12-14T15:39:33.465Z,17.17
2022-12-14T15:42:06.900Z,18.97
2022-12-14T15:44:35.190Z,18.67
2022-12-14T15:47:02.915Z,17.33
2022-12-14T15:49:30.655Z,16.80
2022-12-14T15:52:00.743Z,17.67
2022-12-14T15:54:30.836Z,18.07
2022-12-14T15:57:01.017Z,17.37
2022-12-14T15:59:32.353Z,16.87
2022-12-14T16:02:10.280Z,17.97
2022-12-14T16:04:38.658Z,17.83
2022-12-14T16:07:14.380Z,16.67
2022-12-14T16:09:50.221Z,16.27
2022-12-14T16:12:23.968Z,17.53
2022-12-14T16:14:56.731Z,17.13
2022-12-14T16:17:29.545Z,16.77
2022-12-14T16:20:00.456Z,17.27
2022-12-14T16:22:30.700Z,16.90
2022-12-14T16:25:23.346Z,16.93
2022-12-14T16:27:53.212Z,15.90
2022-12-14T16:30:28.342Z,16.33
2022-12-14T16:33:08.228Z,17.10
2022-12-14T16:35:38.403Z,16.10
2022-12-14T16:38:09.048Z,15.77
2022-12-14T16:40:41.722Z,16.47
2022-12-14T16:43:26.850Z,15.53
2022-12-14T16:46:14.411Z,16.53
2022-12-14T16:48:44.896Z,16.03
2022-12-14T16:52:04.964Z,16.40
2022-12-14T16:54:24.867Z,17.83
2022-12-14T16:56:58.382Z,18.20
2022-12-14T16:59:30.500Z,17.60
2022-12-14T17:01:58.625Z,16.57
2022-12-14T17:04:34.389Z,16.07
2022-12-14T17:07:02.787Z,16.40
2022-12-14T17:09:33.242Z,16.03
2022-12-14T17:12:07.950Z,16.50
2022-12-14T17:14:35.820Z,16.67
2022-12-14T17:17:05.446Z,16.70
2022-12-14T17:19:35.693Z,16.70
2022-12-14T17:22:05.376Z,16.17
2022-12-14T17:24:35.701Z,17.03
2022-12-14T17:27:05.389Z,16.70
2022-12-14T17:29:34.503Z,17.23
2022-12-14T17:32:02.776Z,16.77
2022-12-14T17:34:31.010Z,17.03
2022-12-14T17:36:59.501Z,16.77
2022-12-14T17:39:28.712Z,16.23
2022-12-14T17:41:56.789Z,17.47
2022-12-14T17:44:26.137Z,16.60
2022-12-14T17:46:53.874Z,16.97
2022-12-14T17:49:34.033Z,16.97
2022-12-14T17:52:04.282Z,17.23
2022-12-14T17:54:32.401Z,16.67
2022-12-14T17:57:00.927Z,17.73
2022-12-14T17:59:29.998Z,17.23
2022-12-14T18:01:57.987Z,18.57
2022-12-14T18:04:25.878Z,19.17
2022-12-14T18:06:53.557Z,18.53
2022-12-14T18:09:21.328Z,19.43
2022-12-14T18:12:21.653Z,17.97
2022-12-14T18:14:38.314Z,18.87
2022-12-14T18:17:11.245Z,17.47
2022-12-14T18:19:39.810Z,17.50
2022-12-14T18:22:08.745Z,16.40
2022-12-14T18:24:36.612Z,17.30
2022-12-14T18:27:04.478Z,17.00
2022-12-14T18:29:32.182Z,16.33
2022-12-14T18:32:01.456Z,16.80
2022-12-14T18:34:29.978Z,16.37
2022-12-14T18:36:58.588Z,18.23
2022-12-14T18:39:26.276Z,17.70
2022-12-14T18:41:54.678Z,16.73
2022-12-14T18:44:22.404Z,17.93
2022-12-14T18:46:50.352Z,17.70
2022-12-14T18:49:19.483Z,18.00
2022-12-14T18:51:47.216Z,17.20
2022-12-14T18:54:14.844Z,16.83
2022-12-14T18:56:43.160Z,17.30
2022-12-14T18:59:10.825Z,18.43
2022-12-14T19:01:38.672Z,18.13
2022-12-14T19:04:07.451Z,16.53
2022-12-14T19:06:45.313Z,18.53
2022-12-14T19:09:14.462Z,16.63
2022-12-14T19:11:42.915Z,17.67
2022-12-14T19:14:11.479Z,18.27
2022-12-14T19:16:39.520Z,18.17
2022-12-14T19:19:07.288Z,18.07
2022-12-14T19:21:36.501Z,18.90
2022-12-14T19:24:04.786Z,17.80
2022-12-14T19:26:32.544Z,18.53
2022-12-14T19:29:24.957Z,19.33
2022-12-14T19:31:54.424Z,17.83
2022-12-14T19:34:22.931Z,18.83
2022-12-14T19:36:51.930Z,19.40
2022-12-14T19:39:19.609Z,18.13
2022-12-14T19:41:48.121Z,18.97
2022-12-14T19:44:15.827Z,18.47
2022-12-14T19:46:43.644Z,18.73
2022-12-14T19:49:13.508Z,18.57
2022-12-14T19:51:41.367Z,16.73
2022-12-14T19:54:11.928Z,18.70
2022-12-14T19:56:39.585Z,18.40
2022-12-14T19:59:07.267Z,18.20
2022-12-14T20:01:39.789Z,18.07
2022-12-14T20:04:11.252Z,19.83
2022-12-14T20:06:39.402Z,19.23
2022-12-14T20:09:07.451Z,19.30
2022-12-14T20:11:36.715Z,19.30
2022-12-14T20:14:04.462Z,19.47
2022-12-14T20:16:32.576Z,20.60
2022-12-14T20:19:00.450Z,20.40
2022-12-14T20:21:29.319Z,19.80
2022-12-14T20:23:58.458Z,19.77
2022-12-14T20:26:27.335Z,21.30
2022-12-14T20:28:58.567Z,20.10
2022-12-14T20:31:26.369Z,19.60
2022-12-14T20:33:54.112Z,19.10
2022-12-14T20:36:22.095Z,18.87
2022-12-14T20:38:55.390Z,19.20
2022-12-14T20:41:23.121Z,19.33
2022-12-14T20:43:50.832Z,19.77
2022-12-14T20:46:28.526Z,19.63
2022-12-14T20:48:57.595Z,19.20
2022-12-14T20:51:25.438Z,19.17
2022-12-14T20:53:53.221Z,19.30
2022-12-14T20:56:21.297Z,20.23
2022-12-14T20:58:49.733Z,19.33
2022-12-14T21:01:19.461Z,22.07
2022-12-14T21:03:50.307Z,23.90
2022-12-14T21:06:20.196Z,21.83
2022-12-14T21:09:09.618Z,20.87
2022-12-14T21:11:57.422Z,20.33
2022-12-14T21:14:27.234Z,23.17
2022-12-14T21:16:55.031Z,29.23
2022-12-14T21:19:24.686Z,33.47
2022-12-14T21:21:54.131Z,34.13
2022-12-14T21:25:01.666Z,33.47
2022-12-14T21:27:16.573Z,34.40
2022-12-14T21:29:44.872Z,33.97
2022-12-14T21:32:12.844Z,32.73
2022-12-14T21:34:43.419Z,29.77
2022-12-14T21:37:12.056Z,27.97
2022-12-14T21:39:41.036Z,29.47
2022-12-14T21:42:10.685Z,25.90
2022-12-14T21:44:38.602Z,24.50
2022-12-14T21:47:09.374Z,22.67
2022-12-14T21:49:37.363Z,23.00
2022-12-14T21:52:07.874Z,22.83
2022-12-14T21:54:36.212Z,22.40
2022-12-14T21:57:33.120Z,23.33
2022-12-14T22:00:01.275Z,24.03
2022-12-14T22:02:30.040Z,21.47
2022-12-14T22:04:57.816Z,21.87
2022-12-14T22:07:31.620Z,21.70
2022-12-14T22:09:59.480Z,21.87
2022-12-14T22:12:27.231Z,22.87
2022-12-14T22:14:54.963Z,21.33
2022-12-14T22:17:22.739Z,21.83
2022-12-14T22:19:51.221Z,21.60
2022-12-14T22:22:19.297Z,21.57
2022-12-14T22:24:51.406Z,21.37
2022-12-14T22:27:20.163Z,21.37
2022-12-14T22:29:48.187Z,23.47
2022-12-14T22:32:16.385Z,21.67
2022-12-14T22:34:44.302Z,22.40
2022-12-14T22:37:16.415Z,21.93
2022-12-14T22:39:44.744Z,22.60
2022-12-14T22:42:17.384Z,23.90
2022-12-14T22:44:45.104Z,21.80
2022-12-14T22:47:12.843Z,23.17
2022-12-14T22:49:40.838Z,22.00
2022-12-14T22:52:08.518Z,23.20
2022-12-14T22:54:39.480Z,22.80
2022-12-14T22:57:11.043Z,22.60
2022-12-14T22:59:45.305Z,23.03
2022-12-14T23:02:13.524Z,22.07
2022-12-14T23:04:41.314Z,21.53
2022-12-14T23:07:09.079Z,22.93
2022-12-14T23:09:54.546Z,24.77
2022-12-14T23:12:40.104Z,27.50
2022-12-14T23:15:27.752Z,31.90
2022-12-14T23:18:13.921Z,28.87
2022-12-14T23:20:59.114Z,25.67
2022-12-14T23:23:44.425Z,22.57
2022-12-14T23:26:29.476Z,22.60
2022-12-14T23:29:14.757Z,23.13
2022-12-14T23:32:01.777Z,22.53
2022-12-14T23:34:47.819Z,21.20
2022-12-14T23:37:33.547Z,22.13
2022-12-14T23:40:18.755Z,21.80
2022-12-14T23:43:04.047Z,22.57
2022-12-14T23:45:49.446Z,22.50
2022-12-14T23:48:35.875Z,22.53
2022-12-14T23:51:21.298Z,22.23
2022-12-14T23:54:06.349Z,23.03
2022-12-14T23:56:51.434Z,22.50
2022-12-14T23:59:36.635Z,22.90
